createdAt,value
2022-12-19T00:01:38.201Z,5.68
2022-12-19T00:04:09.309Z,5.90
2022-12-19T00:06:38.039Z,5.75
2022-12-19T00:09:12.157Z,5.98
2022-12-19T00:11:39.352Z,6.11
2022-12-19T00:14:06.722Z,6.09
2022-12-19T00:16:33.618Z,6.15
2022-12-19T00:19:01.312Z,6.06
2022-12-19T00:21:30.780Z,6.26
2022-12-19T00:24:00.873Z,6.14
2022-12-19T00:26:30.935Z,6.27
2022-12-19T00:29:00.734Z,6.43
2022-12-19T00:31:30.367Z,6.22
2022-12-19T00:33:57.942Z,6.32
2022-12-19T00:36:28.053Z,6.43
2022-12-19T00:38:56.838Z,6.31
2022-12-19T00:41:29.765Z,6.29
2022-12-19T00:44:01.668Z,6.39
2022-12-19T00:46:29.240Z,6.55
2022-12-19T00:48:56.243Z,6.37
2022-12-19T00:51:28.345Z,6.46
2022-12-19T00:53:56.317Z,6.65
2022-12-19T00:56:28.953Z,6.84
2022-12-19T00:58:56.309Z,6.88
2022-12-19T01:01:29.245Z,6.82
2022-12-19T01:04:27.161Z,7.02
2022-12-19T01:06:44.951Z,6.75
2022-12-19T01:09:12.344Z,6.63
2022-12-19T01:11:57.792Z,7.04
2022-12-19T01:14:24.684Z,6.70
2022-12-19T01:16:52.051Z,6.75
2022-12-19T01:19:19.758Z,7.03
2022-12-19T01:21:46.444Z,7.01
2022-12-19T01:24:13.739Z,6.95
2022-12-19T01:26:44.537Z,7.00
2022-12-19T01:29:12.330Z,7.24
2022-12-19T01:31:39.627Z,7.09
2022-12-19T01:34:06.401Z,7.01
2022-12-19T01:36:34.864Z,6.89
2022-12-19T01:39:06.514Z,7.14
2022-12-19T01:41:34.431Z,6.92
2022-12-19T01:44:04.724Z,7.31
2022-12-19T01:46:44.089Z,7.16
2022-12-19T01:49:25.870Z,7.16
2022-12-19T01:51:54.160Z,7.32
2022-12-19T01:54:25.798Z,7.06
2022-12-19T01:56:55.573Z,7.21
2022-12-19T01:59:49.092Z,7.33
2022-12-19T02:02:24.043Z,7.40
2022-12-19T02:04:50.979Z,7.47
2022-12-19T02:07:19.370Z,7.51
2022-12-19T02:09:47.119Z,7.32
2022-12-19T02:12:17.646Z,7.55
2022-12-19T02:14:44.651Z,7.62
2022-12-19T02:17:19.547Z,7.76
2022-12-19T02:20:08.586Z,7.84
2022-12-19T02:22:55.100Z,7.81
2022-12-19T02:25:37.009Z,7.80
2022-12-19T02:28:24.499Z,7.90
2022-12-19T02:31:01.171Z,8.09
2022-12-19T02:33:45.755Z,7.95
2022-12-19T02:36:19.723Z,8.05
2022-12-19T02:38:58.879Z,8.07
2022-12-19T02:41:44.966Z,8.00
2022-12-19T02:44:36.144Z,8.09
2022-12-19T02:47:04.722Z,8.04
2022-12-19T02:49:35.646Z,7.97
2022-12-19T02:52:13.421Z,8.00
2022-12-19T02:54:43.523Z,7.86
2022-12-19T02:57:28.581Z,7.96
2022-12-19T03:00:07.466Z,8.25
2022-12-19T03:02:41.177Z,8.00
2022-12-19T03:05:32.677Z,7.99
2022-12-19T03:08:13.924Z,8.29
2022-12-19T03:10:59.178Z,8.17
2022-12-19T03:13:32.537Z,8.07
2022-12-19T03:16:01.387Z,8.03
2022-12-19T03:18:28.203Z,8.08
2022-12-19T03:21:06.750Z,8.03
2022-12-19T03:23:34.652Z,8.04
2022-12-19T03:26:08.118Z,8.16
2022-12-19T03:29:16.734Z,8.11
2022-12-19T03:31:45.729Z,8.07
2022-12-19T03:34:22.622Z,8.30
2022-12-19T03:36:54.092Z,8.14
2022-12-19T03:39:21.936Z,8.11
2022-12-19T03:42:08.875Z,8.17
2022-12-19T03:44:38.481Z,8.20
2022-12-19T03:47:18.953Z,8.21
2022-12-19T03:49:46.316Z,8.19
2022-12-19T03:52:22.361Z,8.36
2022-12-19T03:55:02.629Z,8.16
2022-12-19T03:57:36.098Z,8.32
2022-12-19T04:00:09.491Z,8.36
2022-12-19T04:02:46.170Z,8.58
2022-12-19T04:05:15.769Z,8.44
2022-12-19T04:07:42.784Z,8.47
2022-12-19T04:10:12.583Z,8.66
2022-12-19T04:12:42.933Z,8.54
2022-12-19T04:15:11.626Z,8.55
2022-12-19T04:17:45.700Z,8.55
2022-12-19T04:20:31.443Z,8.76
2022-12-19T04:23:05.033Z,8.86
2022-12-19T04:25:36.142Z,8.90
2022-12-19T04:28:14.147Z,8.60
2022-12-19T04:30:41.824Z,8.42
2022-12-19T04:33:08.621Z,8.55
2022-12-19T04:35:35.468Z,8.70
2022-12-19T04:38:02.356Z,8.87
2022-12-19T04:40:29.320Z,8.72
2022-12-19T04:42:56.052Z,8.68
2022-12-19T04:45:22.845Z,8.72
2022-12-19T04:47:49.687Z,8.80
2022-12-19T04:50:16.684Z,8.81
2022-12-19T04:52:43.659Z,8.80
2022-12-19T04:55:10.439Z,8.72
2022-12-19T04:57:37.153Z,9.02
2022-12-19T05:00:07.317Z,8.78
2022-12-19T05:02:34.981Z,8.91
2022-12-19T05:05:01.953Z,9.01
2022-12-19T05:07:28.873Z,9.08
2022-12-19T05:09:55.617Z,9.09
2022-12-19T05:12:22.269Z,8.79
2022-12-19T05:14:48.982Z,8.94
2022-12-19T05:17:15.916Z,9.10
2022-12-19T05:19:42.673Z,8.91
2022-12-19T05:22:09.428Z,8.88
2022-12-19T05:24:36.211Z,9.23
2022-12-19T05:27:03.230Z,8.82
2022-12-19T05:29:30.154Z,8.92
2022-12-19T05:31:57.168Z,9.11
2022-12-19T05:34:24.824Z,9.05
2022-12-19T05:36:51.572Z,9.25
2022-12-19T05:39:18.871Z,9.22
2022-12-19T05:41:48.980Z,9.29
2022-12-19T05:44:16.329Z,9.24
2022-12-19T05:46:43.166Z,9.26
2022-12-19T05:49:11.701Z,9.20
2022-12-19T05:51:38.499Z,9.33
2022-12-19T05:54:05.380Z,9.23
2022-12-19T05:56:32.076Z,9.14
2022-12-19T05:58:59.047Z,9.27
2022-12-19T06:01:27.925Z,9.31
2022-12-19T06:03:55.606Z,9.41
2022-12-19T06:06:24.815Z,9.28
2022-12-19T06:08:58.733Z,9.20
2022-12-19T06:11:26.260Z,9.36
2022-12-19T06:13:53.255Z,9.34
2022-12-19T06:16:21.416Z,9.28
2022-12-19T06:18:48.602Z,9.33
2022-12-19T06:21:17.627Z,9.59
2022-12-19T06:23:44.613Z,9.37
2022-12-19T06:26:18.692Z,9.44
2022-12-19T06:28:50.031Z,9.43
2022-12-19T06:31:17.963Z,9.42
2022-12-19T06:33:44.829Z,9.36
2022-12-19T06:36:19.253Z,9.31
2022-12-19T06:38:46.091Z,9.61
2022-12-19T06:41:31.476Z,9.63
2022-12-19T06:43:59.682Z,9.47
2022-12-19T06:46:26.492Z,9.37
2022-12-19T06:48:53.386Z,9.50
2022-12-19T06:51:20.372Z,9.54
2022-12-19T06:53:47.312Z,9.56
2022-12-19T06:56:15.762Z,9.60
2022-12-19T06:58:42.573Z,9.31
2022-12-19T07:01:19.898Z,9.39
2022-12-19T07:03:47.570Z,9.68
2022-12-19T07:06:15.249Z,9.71
2022-12-19T07:08:42.484Z,9.43
2022-12-19T07:11:09.270Z,9.80
2022-12-19T07:13:35.969Z,9.56
2022-12-19T07:16:04.468Z,9.87
2022-12-19T07:18:36.097Z,9.76
2022-12-19T07:21:03.327Z,9.77
2022-12-19T07:23:30.383Z,9.89
2022-12-19T07:25:57.923Z,9.93
2022-12-19T07:28:25.830Z,9.84
2022-12-19T07:30:55.909Z,9.90
2022-12-19T07:33:22.662Z,9.95
2022-12-19T07:35:49.646Z,9.86
2022-12-19T07:38:16.614Z,9.92
2022-12-19T07:40:43.560Z,10.13
2022-12-19T07:43:10.633Z,10.10
2022-12-19T07:45:38.540Z,9.96
2022-12-19T07:48:07.781Z,10.02
2022-12-19T07:50:34.659Z,10.12
2022-12-19T07:53:01.652Z,10.09
2022-12-19T07:55:29.027Z,9.97
2022-12-19T07:57:55.828Z,10.11
2022-12-19T08:00:23.416Z,10.01
2022-12-19T08:02:50.895Z,10.12
2022-12-19T08:05:17.781Z,9.89
2022-12-19T08:07:44.824Z,9.94
2022-12-19T08:10:12.748Z,10.28
2022-12-19T08:12:39.738Z,9.89
2022-12-19T08:15:07.702Z,9.98
2022-12-19T08:17:35.732Z,9.98
2022-12-19T08:20:02.532Z,9.91
2022-12-19T08:22:30.423Z,10.19
2022-12-19T08:24:57.694Z,10.03
2022-12-19T08:27:24.677Z,10.13
2022-12-19T08:29:52.152Z,10.23
2022-12-19T08:32:21.569Z,10.13
2022-12-19T08:34:50.136Z,10.21
2022-12-19T08:37:17.506Z,10.29
2022-12-19T08:39:44.642Z,10.27
2022-12-19T08:42:11.374Z,10.28
2022-12-19T08:44:38.260Z,10.32
2022-12-19T08:47:05.001Z,10.27
2022-12-19T08:49:32.092Z,10.25
2022-12-19T08:51:58.936Z,10.10
2022-12-19T08:54:27.377Z,10.25
2022-12-19T08:56:54.305Z,10.17
2022-12-19T08:59:30.368Z,10.38
2022-12-19T09:01:59.566Z,10.26
2022-12-19T09:05:50.861Z,10.37
2022-12-19T09:07:16.928Z,10.12
2022-12-19T09:09:44.626Z,10.37
2022-12-19T09:12:12.635Z,10.36
2022-12-19T09:14:39.440Z,10.56
2022-12-19T09:17:06.508Z,10.52
2022-12-19T09:19:33.419Z,10.28
2022-12-19T09:22:00.502Z,10.27
2022-12-19T09:24:27.371Z,10.49
2022-12-19T09:26:54.112Z,10.34
2022-12-19T09:29:22.008Z,10.52
2022-12-19T09:31:55.561Z,10.33
2022-12-19T09:34:36.881Z,10.54
2022-12-19T09:37:10.399Z,10.68
2022-12-19T09:39:45.550Z,10.31
2022-12-19T09:42:18.475Z,10.55
2022-12-19T09:45:03.192Z,10.55
2022-12-19T09:47:32.043Z,10.65
2022-12-19T09:50:02.334Z,10.41
2022-12-19T09:52:42.413Z,10.53
2022-12-19T09:55:16.816Z,10.36
2022-12-19T09:58:06.447Z,10.63
2022-12-19T10:00:40.818Z,10.47
2022-12-19T10:03:26.145Z,10.77
2022-12-19T10:06:57.273Z,10.84
2022-12-19T10:09:24.137Z,10.85
2022-12-19T10:12:43.075Z,10.73
2022-12-19T10:15:08.851Z,10.82
2022-12-19T10:18:06.200Z,10.88
2022-12-19T10:20:37.277Z,10.79
2022-12-19T10:23:52.202Z,10.85
2022-12-19T10:26:30.222Z,10.66
2022-12-19T10:29:00.473Z,10.61
2022-12-19T10:31:36.549Z,10.62
2022-12-19T10:34:12.461Z,10.86
2022-12-19T10:39:52.469Z,10.93
2022-12-19T10:42:36.822Z,10.94
2022-12-19T10:45:17.979Z,10.86
2022-12-19T10:47:47.900Z,11.14
2022-12-19T10:50:24.090Z,11.02
2022-12-19T10:53:03.810Z,11.11
2022-12-19T10:55:40.559Z,11.06
2022-12-19T10:58:24.293Z,10.94
2022-12-19T11:01:00.000Z,11.34
2022-12-19T11:03:26.860Z,11.43
2022-12-19T11:05:58.273Z,11.23
2022-12-19T11:08:31.506Z,11.29
2022-12-19T11:13:14.729Z,11.48
2022-12-19T11:18:44.506Z,11.52
2022-12-19T11:21:33.343Z,11.65
2022-12-19T11:29:17.413Z,11.70
2022-12-19T11:29:38.253Z,11.44
2022-12-19T11:30:38.842Z,11.71
2022-12-19T11:30:45.320Z,11.52
2022-12-19T11:33:57.453Z,11.58
2022-12-19T11:36:45.432Z,11.77
2022-12-19T11:39:18.966Z,11.54
2022-12-19T11:41:51.715Z,11.64
2022-12-19T11:44:27.536Z,11.35
2022-12-19T11:46:59.191Z,11.79
2022-12-19T11:49:37.224Z,11.81
2022-12-19T11:53:02.112Z,11.78
2022-12-19T11:55:22.845Z,11.69
2022-12-19T11:57:49.980Z,11.86
2022-12-19T12:00:21.033Z,11.64
2022-12-19T12:03:12.660Z,11.82
2022-12-19T12:05:46.087Z,11.98
2022-12-19T12:10:51.119Z,11.92
2022-12-19T12:18:36.751Z,11.68
2022-12-19T12:24:53.613Z,12.13
2022-12-19T12:26:02.061Z,11.88
2022-12-19T12:31:09.678Z,12.02
2022-12-19T12:31:18.282Z,11.98
2022-12-19T12:31:51.153Z,11.82
2022-12-19T12:31:58.472Z,11.95
2022-12-19T12:35:30.671Z,12.10
2022-12-19T12:39:18.859Z,12.11
2022-12-19T12:42:12.831Z,12.08
2022-12-19T12:44:45.942Z,12.25
2022-12-19T12:47:20.725Z,12.22
2022-12-19T12:49:55.056Z,12.43
2022-12-19T12:52:30.545Z,12.40
2022-12-19T12:54:58.212Z,12.10
2022-12-19T12:57:29.532Z,12.23
2022-12-19T13:00:30.359Z,12.55
2022-12-19T13:03:09.580Z,12.58
2022-12-19T13:05:59.740Z,12.43
2022-12-19T13:08:35.501Z,12.76
2022-12-19T13:11:06.752Z,12.70
2022-12-19T13:13:55.139Z,12.56
2022-12-19T13:16:45.066Z,12.71
2022-12-19T13:19:28.035Z,12.63
2022-12-19T13:22:05.182Z,12.69
2022-12-19T13:24:44.656Z,12.68
2022-12-19T13:27:21.094Z,12.73
2022-12-19T13:29:54.319Z,12.59
2022-12-19T13:32:23.071Z,12.79
2022-12-19T13:36:38.623Z,12.47
2022-12-19T13:39:48.862Z,12.72
2022-12-19T13:41:45.652Z,12.92
2022-12-19T13:44:12.603Z,12.50
2022-12-19T13:46:45.365Z,12.78
2022-12-19T13:49:13.940Z,12.81
2022-12-19T13:51:43.402Z,12.85
2022-12-19T13:54:37.466Z,12.69
2022-12-19T13:57:24.108Z,12.78
2022-12-19T13:59:59.483Z,12.80
2022-12-19T14:02:32.131Z,12.50
2022-12-19T14:05:03.196Z,12.64
2022-12-19T14:07:39.951Z,12.63
2022-12-19T14:11:35.737Z,12.65
2022-12-19T14:13:48.101Z,12.56
2022-12-19T14:16:43.563Z,12.70
2022-12-19T14:19:31.196Z,12.61
2022-12-19T14:22:24.748Z,12.56
2022-12-19T14:25:49.308Z,12.51
2022-12-19T14:28:20.603Z,12.67
2022-12-19T14:30:54.361Z,12.69
2022-12-19T14:33:43.420Z,12.64
2022-12-19T14:36:16.572Z,12.42
2022-12-19T14:39:24.282Z,12.61
2022-12-19T14:42:02.163Z,12.54
2022-12-19T14:52:08.361Z,12.87
2022-12-19T14:53:51.109Z,12.54
2022-12-19T14:54:29.347Z,12.71
2022-12-19T14:58:33.793Z,12.41
2022-12-19T15:01:08.563Z,12.75
2022-12-19T15:03:32.649Z,12.42
2022-12-19T15:07:05.851Z,12.52
2022-12-19T15:10:58.705Z,12.66
2022-12-19T15:13:47.097Z,12.52
2022-12-19T15:15:17.781Z,12.78
2022-12-19T15:17:47.756Z,12.59
2022-12-19T15:20:14.625Z,12.48
2022-12-19T15:22:41.590Z,12.44
2022-12-19T15:25:43.983Z,12.35
2022-12-19T15:28:12.346Z,12.25
2022-12-19T15:30:42.830Z,12.57
2022-12-19T15:33:17.005Z,12.77
2022-12-19T15:35:44.199Z,12.75
2022-12-19T15:38:13.966Z,12.39
2022-12-19T15:40:42.871Z,12.49
2022-12-19T15:43:53.147Z,12.39
2022-12-19T15:46:04.831Z,12.52
2022-12-19T15:48:32.000Z,12.54
2022-12-19T15:50:58.867Z,12.35
2022-12-19T15:53:40.225Z,12.66
2022-12-19T15:56:21.140Z,12.77
2022-12-19T15:58:47.939Z,12.58
2022-12-19T16:01:14.942Z,12.20
2022-12-19T16:03:42.248Z,11.99
2022-12-19T16:06:13.833Z,12.41
2022-12-19T16:08:40.846Z,12.49
2022-12-19T16:11:16.990Z,12.25
2022-12-19T16:13:46.065Z,12.01
2022-12-19T16:16:15.805Z,12.20
2022-12-19T16:18:44.504Z,12.28
2022-12-19T16:21:27.361Z,12.20
2022-12-19T16:23:58.287Z,12.23
2022-12-19T16:26:32.160Z,12.20
2022-12-19T16:28:59.555Z,11.96
2022-12-19T16:31:27.375Z,12.41
2022-12-19T16:33:54.651Z,12.25
2022-12-19T16:36:21.716Z,11.89
2022-12-19T16:38:48.490Z,12.01
2022-12-19T16:41:23.246Z,12.07
2022-12-19T16:43:51.537Z,12.10
2022-12-19T16:46:21.669Z,11.74
2022-12-19T16:48:48.777Z,12.10
2022-12-19T16:51:24.833Z,11.84
2022-12-19T16:53:54.458Z,12.09
2022-12-19T16:56:47.933Z,12.47
2022-12-19T16:59:21.464Z,12.11
2022-12-19T17:01:49.022Z,11.92
2022-12-19T17:04:18.403Z,12.27
2022-12-19T17:06:45.290Z,12.40
2022-12-19T17:09:16.534Z,12.34
2022-12-19T17:11:49.796Z,12.36
2022-12-19T17:14:20.014Z,12.30
2022-12-19T17:16:47.854Z,12.54
2022-12-19T17:19:30.431Z,12.27
2022-12-19T17:21:57.506Z,12.11
2022-12-19T17:24:27.135Z,12.40
2022-12-19T17:26:54.033Z,12.41
2022-12-19T17:29:20.770Z,12.55
2022-12-19T17:31:48.074Z,12.68
2022-12-19T17:34:34.011Z,12.82
2022-12-19T17:37:05.094Z,12.47
2022-12-19T17:39:42.532Z,12.49
2022-12-19T17:42:22.024Z,12.82
2022-12-19T17:44:48.889Z,12.45
2022-12-19T17:47:17.132Z,12.24
2022-12-19T17:49:44.110Z,12.39
2022-12-19T17:52:16.008Z,12.18
2022-12-19T17:54:42.941Z,12.85
2022-12-19T17:57:16.921Z,12.48
2022-12-19T17:59:46.479Z,12.63
2022-12-19T18:02:26.622Z,12.52
2022-12-19T18:04:58.599Z,12.54
2022-12-19T18:07:25.537Z,12.52
2022-12-19T18:09:52.413Z,12.44
2022-12-19T18:12:20.119Z,12.44
2022-12-19T18:14:47.595Z,12.53
2022-12-19T18:17:22.434Z,12.21
2022-12-19T18:19:50.407Z,12.73
2022-12-19T18:22:18.068Z,12.62
2022-12-19T18:24:45.379Z,12.72
2022-12-19T18:27:12.347Z,12.50
2022-12-19T18:29:39.217Z,12.67
2022-12-19T18:32:06.192Z,12.27
2022-12-19T18:34:33.643Z,12.17
2022-12-19T18:37:00.442Z,12.47
2022-12-19T18:39:32.314Z,12.37
2022-12-19T18:42:01.812Z,12.55
2022-12-19T18:44:28.619Z,12.60
2022-12-19T18:46:55.597Z,12.52
2022-12-19T18:49:23.067Z,12.26
2022-12-19T18:51:50.227Z,12.37
2022-12-19T18:54:21.494Z,12.77
2022-12-19T18:56:48.508Z,12.49
2022-12-19T18:59:15.269Z,12.36
2022-12-19T19:01:47.077Z,12.27
2022-12-19T19:04:18.141Z,12.32
2022-12-19T19:09:33.637Z,12.46
2022-12-19T19:12:12.339Z,12.75
2022-12-19T19:14:39.539Z,12.58
2022-12-19T19:17:06.774Z,12.64
2022-12-19T19:19:33.872Z,12.48
2022-12-19T19:22:00.637Z,12.59
2022-12-19T19:24:27.688Z,12.52
2022-12-19T19:26:54.502Z,12.41
2022-12-19T19:29:21.272Z,12.59
2022-12-19T19:31:49.136Z,12.90
2022-12-19T19:34:21.900Z,12.53
2022-12-19T19:36:53.747Z,12.87
2022-12-19T19:39:22.409Z,12.72
2022-12-19T19:41:49.310Z,12.96
2022-12-19T19:44:16.100Z,12.46
2022-12-19T19:46:42.987Z,12.83
2022-12-19T19:49:09.974Z,12.39
2022-12-19T19:51:36.711Z,12.84
2022-12-19T19:54:03.681Z,13.21
2022-12-19T19:56:31.088Z,12.68
2022-12-19T19:59:00.260Z,13.22
2022-12-19T20:01:27.149Z,13.21
2022-12-19T20:03:54.035Z,13.19
2022-12-19T20:06:22.187Z,12.62
2022-12-19T20:08:49.518Z,12.47
2022-12-19T20:11:16.771Z,12.80
2022-12-19T20:13:44.169Z,12.75
2022-12-19T20:16:13.133Z,12.45
2022-12-19T20:18:40.845Z,12.45
2022-12-19T20:21:13.423Z,12.87
2022-12-19T20:23:41.738Z,12.77
2022-12-19T20:26:09.032Z,12.92
2022-12-19T20:28:35.963Z,12.82
2022-12-19T20:31:03.325Z,13.07
2022-12-19T20:33:30.634Z,12.96
2022-12-19T20:35:58.608Z,12.93
2022-12-19T20:38:25.470Z,13.03
2022-12-19T20:40:55.829Z,13.08
2022-12-19T20:43:24.363Z,13.18
2022-12-19T20:45:51.556Z,13.14
2022-12-19T20:48:20.435Z,12.92
2022-12-19T21:23:36.183Z,13.05
2022-12-19T21:26:05.329Z,13.15
2022-12-19T21:28:32.397Z,12.85
2022-12-19T21:31:01.605Z,13.10
2022-12-19T21:33:28.758Z,13.04
2022-12-19T21:35:55.778Z,13.13
2022-12-19T21:38:23.415Z,13.09
2022-12-19T21:40:50.152Z,13.01
2022-12-19T21:43:17.138Z,12.80
2022-12-19T21:45:44.026Z,12.94
2022-12-19T21:48:10.951Z,12.70
2022-12-19T21:50:37.684Z,13.25
2022-12-19T21:53:04.480Z,13.14
2022-12-19T21:55:31.213Z,13.20
2022-12-19T21:57:59.420Z,13.05
2022-12-19T22:00:27.004Z,13.16
2022-12-19T22:03:13.207Z,13.26
2022-12-19T22:05:41.068Z,13.12
2022-12-19T22:08:09.648Z,13.24
2022-12-19T22:10:39.086Z,13.29
2022-12-19T22:13:06.437Z,13.41
2022-12-19T22:15:36.635Z,13.11
2022-12-19T22:18:03.699Z,13.39
2022-12-19T22:20:30.445Z,13.21
2022-12-19T22:22:57.198Z,13.16
2022-12-19T22:25:23.994Z,13.29
2022-12-19T22:27:50.972Z,13.52
2022-12-19T22:42:38.920Z,13.41
2022-12-19T22:45:06.514Z,13.50
2022-12-19T22:47:33.169Z,13.26
2022-12-19T22:49:59.935Z,13.20
2022-12-19T22:52:26.893Z,13.31
2022-12-19T22:54:53.658Z,13.32
2022-12-19T22:57:20.595Z,13.24
2022-12-19T22:59:47.376Z,13.25
2022-12-19T23:02:14.354Z,13.45
2022-12-19T23:04:41.225Z,13.34
2022-12-19T23:07:07.962Z,13.33
2022-12-19T23:09:34.762Z,13.19
2022-12-19T23:12:01.676Z,13.16
2022-12-19T23:14:29.379Z,13.13
2022-12-19T23:16:56.380Z,13.31
2022-12-19T23:19:23.321Z,13.21
2022-12-19T23:21:50.517Z,13.17
2022-12-19T23:24:17.279Z,13.42
2022-12-19T23:26:44.076Z,13.18
2022-12-19T23:29:13.201Z,13.19
2022-12-19T23:31:45.207Z,12.93
2022-12-19T23:34:12.816Z,13.40
2022-12-19T23:39:26.250Z,13.30
2022-12-19T23:41:53.120Z,13.35
2022-12-19T23:44:20.217Z,13.59
2022-12-19T23:46:46.963Z,13.36
2022-12-19T23:49:14.287Z,13.65
2022-12-19T23:51:41.440Z,13.48
2022-12-19T23:54:09.060Z,13.67
2022-12-19T23:56:36.197Z,13.42
2022-12-19T23:59:04.099Z,13.31
